^^
Station Historical Data
Daily Summary for June 20, 2017 Units:  English    Metric   Both
« Previous Day
Next Day »
Daily Weekly Monthly Yearly Custom
  High: Low: Average:
Temperature: 83.1 °F 67.6 °F 75.5 °F
Dew Point: 70.0 °F 54.9 °F 61.8 °F
Humidity: 97% 39% 66%
Wind Speed: 8.0mph 0.0mph 2.8mph
Wind Gust: 20.0mph - -
Wind- - SSW
Pressure: 29.95 in 29.83 in -
Precipitation: 0.03 in    
Historical Graphs
 
 
Tabular Data for June 20, 2017
Time Temperature Dew Point Pressure Wind Wind Speed Wind Gust Humidity Rainfall Rate (Hourly) Conditions
00:00 69.3 °F 68.1 °F 29.88 in SSW 2.0 mph 8.0 mph 96% 0.00 in -RA
00:15 69.4 °F 68.2 °F 29.88 in SSW 2.0 mph 9.0 mph 96% 0.00 in BKN
00:30 69.5 °F 68.3 °F 29.86 in SW 2.0 mph 9.0 mph 96% 0.00 in BKN
00:45 69.5 °F 68.3 °F 29.86 in SSW 2.0 mph 9.0 mph 96% 0.00 in BKN
01:00 69.4 °F 68.2 °F 29.85 in SSW 1.0 mph 6.0 mph 96% 0.00 in BKN
01:15 69.4 °F 68.5 °F 29.85 in SSW 3.0 mph 8.0 mph 97% 0.00 in BKN
01:30 69.4 °F 68.5 °F 29.84 in SW 3.0 mph 9.0 mph 97% 0.00 in BKN
01:45 69.4 °F 68.5 °F 29.84 in South 3.0 mph 9.0 mph 97% 0.00 in BKN
02:00 69.4 °F 68.5 °F 29.84 in SW 2.0 mph 6.0 mph 97% 0.02 in RA
04:00 69.3 °F 68.4 °F 29.83 in South 2.0 mph 6.0 mph 97% 0.00 in CLR
04:15 69.3 °F 68.4 °F 29.83 in South 2.0 mph 6.0 mph 97% 0.00 in CLR
04:30 69.4 °F 68.5 °F 29.84 in South 2.0 mph 6.0 mph 97% 0.00 in CLR
04:45 69.5 °F 68.6 °F 29.84 in South 1.0 mph 6.0 mph 97% 0.00 in CLR
05:00 69.5 °F 68.6 °F 29.84 in South 3.0 mph 6.0 mph 97% 0.00 in CLR
05:15 69.4 °F 68.5 °F 29.84 in South 1.0 mph 6.0 mph 97% 0.00 in BKN
05:30 69.4 °F 68.5 °F 29.84 in SSW 2.0 mph 8.0 mph 97% 0.00 in BKN
05:45 69.4 °F 68.5 °F 29.85 in SSW 3.0 mph 7.0 mph 97% 0.00 in BKN
06:00 69.4 °F 68.5 °F 29.84 in South 2.0 mph 6.0 mph 97% 0.00 in BKN
06:15 69.4 °F 68.5 °F 29.84 in SSW 6.0 mph 9.0 mph 97% 0.00 in BKN
06:30 69.4 °F 68.5 °F 29.84 in SSW 3.0 mph 7.0 mph 97% 0.00 in BKN
06:45 69.6 °F 68.7 °F 29.85 in SSW 3.0 mph 7.0 mph 97% 0.00 in BKN
07:00 69.8 °F 68.9 °F 29.86 in SSW 2.0 mph 10.0 mph 97% 0.00 in BKN
07:15 69.9 °F 69.0 °F 29.86 in Calm   9.0 mph 97% 0.00 in BKN
07:45 70.3 °F 69.1 °F 29.87 in SW 3.0 mph 9.0 mph 96% 0.00 in BKN
08:00 70.9 °F 69.7 °F 29.87 in SW 2.0 mph 8.0 mph 96% 0.00 in BKN
08:15 71.8 °F 70.0 °F 29.87 in SSW 1.0 mph 8.0 mph 94% 0.00 in BKN
08:30 72.5 °F 70.0 °F 29.88 in SW 3.0 mph 12.0 mph 92% 0.00 in BKN
08:45 73.3 °F 69.5 °F 29.88 in South 3.0 mph 12.0 mph 88% 0.00 in BKN
09:00 74.7 °F 69.2 °F 29.88 in SW 2.0 mph 12.0 mph 83% 0.00 in BKN
09:15 74.9 °F 68.0 °F 29.88 in SSW 2.0 mph 12.0 mph 79% 0.00 in BKN
09:30 75.5 °F 66.2 °F 29.88 in SSW 1.0 mph 9.0 mph 73% 0.00 in BKN
09:45 75.9 °F 66.2 °F 29.89 in SSW 2.0 mph 12.0 mph 72% 0.00 in BKN
10:00 76.8 °F 65.0 °F 29.89 in SW 2.0 mph 10.0 mph 67% 0.00 in BKN
10:15 76.8 °F 61.4 °F 29.89 in SSW 6.0 mph 12.0 mph 59% 0.00 in FEW
10:30 77.2 °F 60.8 °F 29.89 in SW 5.0 mph 13.0 mph 57% 0.00 in FEW
10:45 77.5 °F 60.6 °F 29.90 in SW 7.0 mph 14.0 mph 56% 0.00 in FEW
11:00 78.2 °F 60.2 °F 29.90 in SSW 6.0 mph 13.0 mph 54% 0.00 in FEW
11:15 78.7 °F 60.7 °F 29.90 in WSW 2.0 mph 12.0 mph 54% 0.00 in FEW
11:30 78.9 °F 59.8 °F 29.90 in SW 7.0 mph 14.0 mph 52% 0.00 in FEW
11:45 78.9 °F 59.8 °F 29.90 in SSW 2.0 mph 14.0 mph 52% 0.00 in FEW
12:00 79.5 °F 60.3 °F 29.90 in SW 3.0 mph 12.0 mph 52% 0.00 in FEW
12:15 80.3 °F 61.6 °F 29.90 in WSW 2.0 mph 11.0 mph 53% 0.00 in FEW
12:30 80.7 °F 60.9 °F 29.90 in South 3.0 mph 9.0 mph 51% 0.00 in FEW
12:45 80.7 °F 59.7 °F 29.90 in SSW 3.0 mph 12.0 mph 49% 0.00 in FEW
13:00 81.5 °F 58.7 °F 29.90 in SW 7.0 mph 14.0 mph 46% 0.00 in FEW
13:15 81.6 °F 59.4 °F 29.89 in SW 5.0 mph 14.0 mph 47% 0.00 in FEW
13:30 82.3 °F 56.3 °F 29.89 in SW 6.0 mph 12.0 mph 41% 0.00 in FEW
13:45 82.2 °F 58.1 °F 29.89 in WSW 5.0 mph 14.0 mph 44% 0.00 in FEW
14:00 82.5 °F 55.7 °F 29.89 in WSW 5.0 mph 14.0 mph 40% 0.00 in FEW
14:15 82.6 °F 56.5 °F 29.89 in SW 2.0 mph 15.0 mph 41% 0.00 in SCT
14:30 83.1 °F 56.3 °F 29.89 in SSW 7.0 mph 16.0 mph 40% 0.00 in SCT
14:45 82.8 °F 55.3 °F 29.89 in SW 6.0 mph 17.0 mph 39% 0.00 in SCT
15:00 82.9 °F 55.4 °F 29.89 in SW 7.0 mph 20.0 mph 39% 0.00 in SCT
15:15 83.1 °F 56.3 °F 29.89 in WSW 6.0 mph 17.0 mph 40% 0.00 in FEW
15:30 82.3 °F 56.9 °F 29.90 in SSW 5.0 mph 13.0 mph 42% 0.00 in FEW
15:45 81.4 °F 56.1 °F 29.90 in WSW 6.0 mph 13.0 mph 42% 0.00 in FEW
16:00 81.6 °F 54.9 °F 29.91 in SW 5.0 mph 16.0 mph 40% 0.00 in FEW
16:15 82.1 °F 56.0 °F 29.90 in SW 3.0 mph 16.0 mph 41% 0.00 in SCT
16:30 82.6 °F 56.5 °F 29.91 in SSW 6.0 mph 15.0 mph 41% 0.00 in SCT
16:45 82.0 °F 55.3 °F 29.90 in SW 6.0 mph 15.0 mph 40% 0.00 in SCT
17:00 81.8 °F 55.1 °F 29.91 in SW 8.0 mph 18.0 mph 40% 0.00 in SCT
17:15 82.1 °F 55.4 °F 29.91 in SSW 5.0 mph 14.0 mph 40% 0.00 in SCT
17:30 82.3 °F 56.9 °F 29.91 in SW 3.0 mph 13.0 mph 42% 0.00 in SCT
17:45 81.9 °F 56.6 °F 29.91 in SW 6.0 mph 12.0 mph 42% 0.00 in SCT
18:00 82.2 °F 57.4 °F 29.91 in SW 1.0 mph 13.0 mph 43% 0.00 in SCT
18:15 81.9 °F 57.2 °F 29.91 in SSW 3.0 mph 14.0 mph 43% 0.00 in SCT
18:30 81.5 °F 56.8 °F 29.92 in WSW 3.0 mph 10.0 mph 43% 0.00 in SCT
18:45 81.4 °F 55.4 °F 29.92 in SW 6.0 mph 13.0 mph 41% 0.00 in SCT
19:00 81.0 °F 55.7 °F 29.92 in SW 2.0 mph 10.0 mph 42% 0.00 in SCT
19:15 80.9 °F 56.3 °F 29.93 in South 2.0 mph 12.0 mph 43% 0.00 in SCT
19:30 80.9 °F 56.3 °F 29.93 in SW 2.0 mph 7.0 mph 43% 0.00 in SCT
19:45 80.6 °F 56.7 °F 29.93 in SSW 1.0 mph 6.0 mph 44% 0.00 in SCT
20:00 79.0 °F 57.0 °F 29.93 in SSW 1.0 mph 6.0 mph 47% 0.00 in SCT
20:15 77.7 °F 57.6 °F 29.93 in Calm   3.0 mph 50% 0.00 in FEW
20:30 76.5 °F 57.5 °F 29.94 in Calm     52% 0.00 in FEW
20:45 74.9 °F 57.7 °F 29.94 in Calm     55% 0.00 in FEW
21:00 73.9 °F 57.2 °F 29.94 in Calm     56% 0.00 in FEW
21:15 72.7 °F 59.3 °F 29.94 in Calm     63% 0.00 in FEW
21:31 71.0 °F 59.9 °F 29.95 in Calm     68% 0.00 in FEW
21:45 70.5 °F 58.2 °F 29.95 in Calm     65% 0.00 in FEW
22:00 71.3 °F 57.1 °F 29.94 in Calm     61% 0.00 in FEW
22:15 70.2 °F 59.9 °F 29.95 in Calm     70% 0.00 in CLR
22:30 68.7 °F 59.3 °F 29.95 in Calm     72% 0.00 in CLR
22:45 68.4 °F 59.8 °F 29.94 in Calm     74% 0.00 in CLR
23:00 67.6 °F 59.8 °F 29.94 in Calm     76% 0.00 in CLR
23:15 68.1 °F 58.3 °F 29.95 in Calm     71% 0.00 in CLR
23:30 68.2 °F 58.0 °F 29.95 in Calm     70% 0.00 in CLR
23:45 68.4 °F 57.4 °F 29.95 in Calm   1.0 mph 68% 0.00 in CLR
TarryTown NY Weather
Compliments of Weather Underground - 1.5 mb